Řízení letového provozu České republiky
Letiste: LKLN Aktualizace: 20.07.2018 15:01:06  UTC
 METAR LKLN 20.07. 15:00 ...
METAR LKLN 201500Z AUTO 12005KT 060V160 9999 BKN220 27/08 Q1013=